createdAt,value
2019-02-06T00:03:14.004Z,15.30
2019-02-06T00:08:17.850Z,16.20
2019-02-06T00:13:21.879Z,15.83
2019-02-06T00:18:26.131Z,16.33
2019-02-06T00:23:29.989Z,15.23
2019-02-06T00:28:34.064Z,15.83
2019-02-06T00:33:37.755Z,15.37
2019-02-06T00:38:41.447Z,16.50
2019-02-06T00:43:45.507Z,16.23
2019-02-06T00:48:49.200Z,16.13
2019-02-06T00:53:53.440Z,16.77
2019-02-06T00:58:57.130Z,17.00
2019-02-06T01:04:01.238Z,17.80
2019-02-06T01:09:08.636Z,17.07
2019-02-06T01:14:12.340Z,16.97
2019-02-06T01:19:16.106Z,17.37
2019-02-06T01:24:19.884Z,17.40
2019-02-06T01:29:23.578Z,17.87
2019-02-06T01:34:27.351Z,17.53
2019-02-06T01:39:31.407Z,18.37
2019-02-06T01:44:35.103Z,18.97
2019-02-06T01:49:38.798Z,19.27
2019-02-06T01:54:42.491Z,19.70
2019-02-06T01:59:46.565Z,19.63
2019-02-06T02:04:50.230Z,18.53
2019-02-06T02:09:54.337Z,17.93
2019-02-06T02:14:57.990Z,18.43
2019-02-06T02:20:01.726Z,18.40
2019-02-06T02:25:06.305Z,18.77
2019-02-06T02:30:12.672Z,17.13
2019-02-06T02:35:16.403Z,18.67
2019-02-06T02:40:20.070Z,18.73
2019-02-06T02:45:23.754Z,17.10
2019-02-06T02:50:27.472Z,17.13
2019-02-06T02:55:31.126Z,16.50
2019-02-06T03:00:46.916Z,16.27
2019-02-06T03:05:50.569Z,17.37
2019-02-06T03:10:54.553Z,16.63
2019-02-06T03:15:58.245Z,15.63
2019-02-06T03:21:02.415Z,16.37
2019-02-06T03:26:06.536Z,16.03
2019-02-06T03:31:11.284Z,16.10
2019-02-06T03:36:15.352Z,16.57
2019-02-06T03:41:19.447Z,16.33
2019-02-06T03:46:23.469Z,16.80
2019-02-06T03:51:27.144Z,15.60
2019-02-06T03:56:30.854Z,17.03
2019-02-06T04:01:34.528Z,15.43
2019-02-06T04:06:38.205Z,15.33
2019-02-06T04:11:41.881Z,15.73
2019-02-06T04:16:45.580Z,16.23
2019-02-06T04:21:49.248Z,16.33
2019-02-06T04:26:52.962Z,18.10
2019-02-06T04:31:56.978Z,17.33
2019-02-06T04:37:06.699Z,16.27
2019-02-06T04:42:06.157Z,16.17
2019-02-06T04:47:09.824Z,16.13
2019-02-06T04:52:13.658Z,15.63
2019-02-06T04:57:17.341Z,14.80
2019-02-06T05:02:21.442Z,16.33
2019-02-06T05:07:25.120Z,16.67
2019-02-06T05:12:29.296Z,15.80
2019-02-06T05:17:32.972Z,17.13
2019-02-06T05:22:37.045Z,16.03
2019-02-06T05:27:40.887Z,17.03
2019-02-06T05:32:44.653Z,17.03
2019-02-06T05:37:48.406Z,16.03
2019-02-06T05:42:52.966Z,16.13
2019-02-06T05:47:56.805Z,16.57
2019-02-06T05:53:00.822Z,15.40
2019-02-06T05:58:04.932Z,15.97
2019-02-06T06:03:08.681Z,15.00
2019-02-06T06:08:12.439Z,16.20
2019-02-06T06:13:18.596Z,15.77
2019-02-06T06:18:22.154Z,18.17
2019-02-06T06:23:26.263Z,15.67
2019-02-06T06:28:29.959Z,15.47
2019-02-06T06:33:33.635Z,15.80
2019-02-06T06:38:37.328Z,24.97
2019-02-06T06:43:41.076Z,20.13
2019-02-06T06:48:45.545Z,15.60
2019-02-06T06:53:49.625Z,15.63
2019-02-06T06:58:53.307Z,15.33
2019-02-06T07:03:57.004Z,16.97
2019-02-06T07:09:00.728Z,16.93
2019-02-06T07:14:05.244Z,16.80
2019-02-06T07:19:09.026Z,16.60
2019-02-06T07:24:12.713Z,18.63
2019-02-06T07:29:16.574Z,19.10
2019-02-06T07:34:20.262Z,17.97
2019-02-06T07:39:24.452Z,19.50
2019-02-06T07:44:28.188Z,19.13
2019-02-06T07:49:31.965Z,19.17
2019-02-06T07:54:35.628Z,19.67
2019-02-06T07:59:39.392Z,21.90
2019-02-06T08:04:43.629Z,22.70
2019-02-06T08:09:47.304Z,25.47
2019-02-06T08:14:50.983Z,28.47
2019-02-06T08:19:54.743Z,26.70
2019-02-06T08:24:58.441Z,27.87
2019-02-06T08:30:02.528Z,26.47
2019-02-06T08:35:07.008Z,26.03
2019-02-06T08:40:11.209Z,27.37
2019-02-06T08:45:15.343Z,27.30
2019-02-06T08:50:19.208Z,28.60
2019-02-06T08:55:25.608Z,27.73
2019-02-06T09:00:32.228Z,27.10
2019-02-06T09:05:36.214Z,27.80
2019-02-06T09:10:40.294Z,27.37
2019-02-06T09:15:44.073Z,27.83
2019-02-06T09:20:48.267Z,27.60
2019-02-06T09:25:52.072Z,26.90
2019-02-06T09:30:55.756Z,26.77
2019-02-06T09:35:59.468Z,28.90
2019-02-06T09:41:03.234Z,25.73
2019-02-06T09:46:06.917Z,25.60
2019-02-06T09:51:10.621Z,23.77
2019-02-06T09:56:15.659Z,25.27
2019-02-06T10:01:21.334Z,25.03
2019-02-06T10:06:24.832Z,23.43
2019-02-06T10:11:28.593Z,24.87
2019-02-06T10:16:32.578Z,25.43
2019-02-06T10:21:37.689Z,21.93
2019-02-06T10:26:41.449Z,21.87
2019-02-06T10:31:45.128Z,21.20
2019-02-06T10:36:48.813Z,21.27
2019-02-06T10:41:52.645Z,20.37
2019-02-06T10:46:56.333Z,22.57
2019-02-06T10:52:00.106Z,22.70
2019-02-06T10:57:05.759Z,19.37
2019-02-06T11:02:11.064Z,17.90
2019-02-06T11:07:16.298Z,18.17
2019-02-06T11:12:24.661Z,21.77
2019-02-06T11:17:28.637Z,15.67
2019-02-06T11:22:34.305Z,20.57
2019-02-06T11:27:38.090Z,15.97
2019-02-06T11:32:42.006Z,15.03
2019-02-06T11:37:46.108Z,15.30
2019-02-06T11:42:50.036Z,15.10
2019-02-06T11:47:53.721Z,13.50
2019-02-06T11:52:57.415Z,14.67
2019-02-06T11:58:01.325Z,15.43
2019-02-06T12:03:05.434Z,15.90
2019-02-06T12:08:12.134Z,14.17
2019-02-06T12:13:14.615Z,15.00
2019-02-06T12:18:18.441Z,13.77
2019-02-06T12:23:31.860Z,14.03
2019-02-06T12:28:27.980Z,13.33
2019-02-06T12:33:31.783Z,12.73
2019-02-06T12:38:35.684Z,11.70
2019-02-06T12:43:39.498Z,9.83
2019-02-06T12:48:44.167Z,9.77
2019-02-06T12:53:52.273Z,9.43
2019-02-06T12:58:56.446Z,10.57
2019-02-06T13:04:02.829Z,9.73
2019-02-06T13:09:10.759Z,8.87
2019-02-06T13:14:14.725Z,8.30
2019-02-06T13:19:19.077Z,8.77
2019-02-06T13:24:22.973Z,8.70
2019-02-06T13:29:27.043Z,8.30
2019-02-06T13:34:31.065Z,8.33
2019-02-06T13:39:34.813Z,8.50
2019-02-06T13:44:41.499Z,7.73
2019-02-06T13:49:46.864Z,8.63
2019-02-06T13:54:49.561Z,8.67
2019-02-06T13:59:53.248Z,8.50
2019-02-06T14:04:56.933Z,9.13
2019-02-06T14:10:00.759Z,8.97
2019-02-06T14:15:06.975Z,9.30
2019-02-06T14:20:13.841Z,9.07
2019-02-06T14:25:31.101Z,8.63
2019-02-06T14:31:40.301Z,8.83
2019-02-06T14:37:10.238Z,13.30
2019-02-06T14:42:27.336Z,10.43
2019-02-06T14:48:00.996Z,9.23
2019-02-06T14:53:41.715Z,9.13
2019-02-06T14:59:40.830Z,9.13
2019-02-06T15:05:14.324Z,9.13
2019-02-06T15:10:34.645Z,8.57
2019-02-06T15:16:07.448Z,9.10
2019-02-06T15:21:36.881Z,9.00
2019-02-06T15:27:17.964Z,8.63
2019-02-06T15:32:39.602Z,8.70
2019-02-06T15:38:19.421Z,8.93
2019-02-06T15:44:10.716Z,10.13
2019-02-06T15:49:25.493Z,11.10
2019-02-06T15:54:42.624Z,11.30
2019-02-06T16:00:39.356Z,11.40
2019-02-06T16:06:32.842Z,11.80
2019-02-06T16:12:07.600Z,11.00
2019-02-06T16:18:00.957Z,14.50
2019-02-06T16:23:44.510Z,13.73
2019-02-06T16:29:13.291Z,12.40
2019-02-06T16:34:43.523Z,12.87
2019-02-06T16:40:04.996Z,12.40
2019-02-06T16:45:53.339Z,13.00
2019-02-06T16:51:04.821Z,13.17
2019-02-06T16:56:48.697Z,13.03
2019-02-06T17:02:48.300Z,11.97
2019-02-06T17:08:17.425Z,12.80
2019-02-06T17:14:01.660Z,11.63
2019-02-06T17:19:47.361Z,12.03
2019-02-06T17:25:25.047Z,11.80
2019-02-06T17:30:54.552Z,12.97
2019-02-06T17:36:39.899Z,13.03
2019-02-06T17:42:15.994Z,12.53
2019-02-06T17:47:36.012Z,12.33
2019-02-06T17:53:05.792Z,12.67
2019-02-06T17:58:12.381Z,13.03
2019-02-06T18:03:16.144Z,12.63
2019-02-06T18:08:20.731Z,16.07
2019-02-06T18:13:24.865Z,14.47
2019-02-06T18:18:28.582Z,13.60
2019-02-06T18:23:33.207Z,13.63
2019-02-06T18:28:38.856Z,12.90
2019-02-06T18:33:42.905Z,14.17
2019-02-06T18:38:48.324Z,15.73
2019-02-06T18:43:51.994Z,13.97
2019-02-06T18:48:56.248Z,14.37
2019-02-06T18:54:00.045Z,14.33
2019-02-06T18:59:04.584Z,15.37
2019-02-06T19:04:14.352Z,15.50
2019-02-06T19:09:18.361Z,15.27
2019-02-06T19:14:22.271Z,15.67
2019-02-06T19:19:26.020Z,16.10
2019-02-06T19:24:29.797Z,15.67
2019-02-06T19:29:33.893Z,16.13
2019-02-06T19:34:37.648Z,15.37
2019-02-06T19:39:41.409Z,15.20
2019-02-06T19:44:45.776Z,15.50
2019-02-06T19:49:49.797Z,14.70
2019-02-06T19:54:53.545Z,14.53
2019-02-06T19:59:57.211Z,16.10
2019-02-06T20:05:01.172Z,14.60
2019-02-06T20:10:06.913Z,15.03
2019-02-06T20:15:10.880Z,15.27
2019-02-06T20:20:17.226Z,15.50
2019-02-06T20:25:21.431Z,15.23
2019-02-06T20:30:26.940Z,15.50
2019-02-06T20:35:30.684Z,15.63
2019-02-06T20:40:35.829Z,14.37
2019-02-06T20:45:39.862Z,15.53
2019-02-06T20:50:43.620Z,14.93
2019-02-06T20:55:47.296Z,15.03
2019-02-06T21:00:51.304Z,15.63
2019-02-06T21:05:55.284Z,15.17
2019-02-06T21:10:59.041Z,14.37
2019-02-06T21:16:02.725Z,14.87
2019-02-06T21:21:06.502Z,14.70
2019-02-06T21:26:21.902Z,14.70
2019-02-06T21:31:25.661Z,13.73
2019-02-06T21:36:29.420Z,14.40
2019-02-06T21:41:33.406Z,13.73
2019-02-06T21:46:37.156Z,13.47
2019-02-06T21:51:40.823Z,13.93
2019-02-06T21:56:44.504Z,15.03
2019-02-06T22:01:48.580Z,13.70
2019-02-06T22:06:52.251Z,13.10
2019-02-06T22:11:56.000Z,12.90
2019-02-06T22:17:00.663Z,13.33
2019-02-06T22:22:04.716Z,12.83
2019-02-06T22:27:08.401Z,13.07
2019-02-06T22:32:12.456Z,12.63
2019-02-06T22:37:16.389Z,12.70
2019-02-06T22:42:20.065Z,13.47
2019-02-06T22:47:23.737Z,13.10
2019-02-06T22:52:27.488Z,12.63
2019-02-06T22:57:31.540Z,12.57
2019-02-06T23:02:35.216Z,12.00
2019-02-06T23:07:38.901Z,12.33
2019-02-06T23:12:42.838Z,11.63
2019-02-06T23:17:46.672Z,11.17
2019-02-06T23:22:50.524Z,11.10
2019-02-06T23:27:54.214Z,11.90
2019-02-06T23:32:57.956Z,10.83
2019-02-06T23:38:01.629Z,11.07
2019-02-06T23:43:05.303Z,11.70
2019-02-06T23:48:09.116Z,11.03
2019-02-06T23:53:12.792Z,11.47
2019-02-06T23:58:16.837Z,11.33
